This is the latest recevied weather packets stored in our database for station/object K4FB. If no packets are shown the sender has not sent any weather packets the latest 10 day(s).
| Time | Temp. | Humidity | Pressure | Rain* | Wind** | Luminosity | Snow |
|---|---|---|---|---|---|---|---|
| 1777237213 | 32.22° C | 43% | 1011.4 hPa | 0 mm | - | - | - |
| 1777236908 | 32.22° C | 44% | 1011.3 hPa | 0 mm | - | - | - |
| 1777236605 | 32.22° C | 45% | 1011.2 hPa | 0 mm | - | - | - |
| 1777236306 | 32.22° C | 46% | 1011.2 hPa | 0 mm | - | - | - |
| 1777234805 | 32.22° C | 50% | 1011.1 hPa | 0 mm | - | - | - |
| 1777234508 | 32.22° C | 49% | 1011.1 hPa | 0 mm | - | - | - |
| 1777233003 | 32.78° C | 51% | 1011.3 hPa | 0 mm | - | - | - |
| 1777232413 | 32.78° C | 51% | 1011.4 hPa | 0 mm | - | - | - |
| 1777231511 | 32.22° C | 51% | 1011.5 hPa | 0 mm | - | - | - |
| 1777230608 | 32.22° C | 51% | 1011.6 hPa | 0 mm | - | - | - |
| 1777228222 | 32.22° C | 49% | 1011.7 hPa | 0 mm | - | - | - |
| 1777223708 | 31.67° C | 56% | 1012.2 hPa | 0 mm | - | - | - |
| 1777221916 | 30.56° C | 57% | 1012.6 hPa | 0 mm | - | - | - |
| 1777221603 | 30° C | 59% | 1012.7 hPa | 0 mm | - | - | - |
| 1777220404 | 30° C | 60% | 1012.9 hPa | 0 mm | - | - | - |
| 1777220118 | 30° C | 62% | 1013 hPa | 0 mm | - | - | - |
| 1777216204 | 27.22° C | 72% | 1013.3 hPa | 0 mm | - | - | - |
| 1777215906 | 27.22° C | 71% | 1013.4 hPa | 0 mm | - | - | - |
| 1777213825 | 26.67° C | 76% | 1013.8 hPa | 0 mm | - | - | - |
| 1777210209 | 23.33° C | 87% | 1013.7 hPa | 0 mm | - | - | - |
| 1777208705 | 21.67° C | 92% | 1013.7 hPa | 0 mm | - | - | - |
| 1777203609 | 18.33° C | 95% | 1013.1 hPa | 0 mm | - | - | - |
| 1777202709 | 18.33° C | 95% | 1012.9 hPa | 0 mm | - | - | - |
| 1777202148 | 18.33° C | 95% | 1012.9 hPa | 0 mm | - | - | - |
| 1777201223 | 18.33° C | 95% | 1012.9 hPa | 0 mm | - | - | - |
* Rain latest hour (hover to see other rain measurements)
** Current wind speed in m/s (hover to see current wind gust speed)